createdAt,value
2023-03-29T00:01:35.302Z,8.07
2023-03-29T00:04:06.527Z,8.06
2023-03-29T00:06:36.902Z,8.12
2023-03-29T00:09:09.901Z,8.07
2023-03-29T00:11:39.697Z,8.04
2023-03-29T00:14:09.512Z,7.87
2023-03-29T00:16:44.788Z,8.00
2023-03-29T00:19:14.590Z,7.82
2023-03-29T00:21:44.437Z,7.98
2023-03-29T00:24:14.176Z,7.87
2023-03-29T00:26:43.938Z,7.81
2023-03-29T00:29:13.712Z,7.86
2023-03-29T00:31:52.798Z,7.78
2023-03-29T00:34:22.822Z,7.45
2023-03-29T00:36:53.194Z,7.76
2023-03-29T00:39:23.442Z,7.66
2023-03-29T00:41:54.196Z,7.86
2023-03-29T00:44:53.999Z,7.74
2023-03-29T00:47:30.334Z,7.64
2023-03-29T00:50:04.391Z,7.72
2023-03-29T00:52:35.696Z,7.66
2023-03-29T00:55:10.253Z,7.80
2023-03-29T00:57:41.690Z,7.88
2023-03-29T01:00:14.789Z,7.88
2023-03-29T01:02:51.291Z,7.89
2023-03-29T01:05:24.681Z,7.64
2023-03-29T01:08:00.239Z,7.78
2023-03-29T01:10:35.240Z,7.67
2023-03-29T01:13:09.674Z,7.79
2023-03-29T01:15:41.005Z,7.84
2023-03-29T01:18:14.087Z,7.48
2023-03-29T01:21:05.081Z,7.43
2023-03-29T01:23:52.895Z,7.55
2023-03-29T01:26:29.073Z,7.45
2023-03-29T01:29:08.128Z,7.38
2023-03-29T01:31:42.705Z,7.43
2023-03-29T01:34:15.492Z,7.58
2023-03-29T01:36:52.126Z,7.50
2023-03-29T01:39:22.196Z,7.75
2023-03-29T01:42:04.701Z,7.59
2023-03-29T01:44:39.543Z,7.59
2023-03-29T01:47:15.737Z,7.58
2023-03-29T01:49:49.796Z,7.64
2023-03-29T01:52:26.062Z,7.57
2023-03-29T01:54:58.938Z,7.58
2023-03-29T01:57:29.878Z,7.34
2023-03-29T02:00:11.404Z,7.36
2023-03-29T02:02:45.610Z,7.25
2023-03-29T02:05:17.916Z,7.24
2023-03-29T02:07:50.686Z,7.20
2023-03-29T02:10:21.604Z,7.34
2023-03-29T02:12:51.463Z,7.24
2023-03-29T02:15:24.188Z,7.26
2023-03-29T02:17:54.866Z,7.29
2023-03-29T02:20:30.246Z,7.36
2023-03-29T02:23:08.420Z,6.96
2023-03-29T02:25:39.368Z,7.28
2023-03-29T02:28:10.185Z,7.31
2023-03-29T02:30:48.478Z,7.36
2023-03-29T02:33:24.128Z,6.97
2023-03-29T02:35:59.538Z,7.54
2023-03-29T02:38:31.482Z,7.60
2023-03-29T02:41:02.648Z,7.58
2023-03-29T02:43:33.616Z,7.53
2023-03-29T02:46:08.107Z,7.39
2023-03-29T02:48:39.947Z,7.51
2023-03-29T02:51:19.819Z,7.41
2023-03-29T02:53:55.786Z,7.54
2023-03-29T02:56:26.206Z,7.79
2023-03-29T02:58:55.925Z,7.92
2023-03-29T03:01:28.562Z,8.00
2023-03-29T03:03:58.649Z,7.91
2023-03-29T03:06:29.316Z,7.70
2023-03-29T03:08:59.154Z,7.58
2023-03-29T03:11:31.757Z,7.40
2023-03-29T03:14:01.778Z,7.27
2023-03-29T03:16:34.870Z,7.39
2023-03-29T03:19:04.618Z,7.25
2023-03-29T03:21:35.367Z,7.29
2023-03-29T03:24:05.647Z,7.18
2023-03-29T03:26:36.137Z,7.09
2023-03-29T03:29:08.254Z,7.03
2023-03-29T03:32:06.344Z,7.02
2023-03-29T03:34:54.650Z,6.97
2023-03-29T03:37:27.681Z,7.15
2023-03-29T03:39:57.903Z,7.22
2023-03-29T03:42:31.106Z,6.99
2023-03-29T03:45:02.008Z,7.09
2023-03-29T03:47:51.244Z,6.92
2023-03-29T03:50:36.039Z,7.09
2023-03-29T03:53:05.875Z,7.02
2023-03-29T03:55:57.199Z,6.92
2023-03-29T03:58:31.450Z,6.98
2023-03-29T04:01:01.792Z,6.98
2023-03-29T04:03:46.977Z,6.96
2023-03-29T04:06:18.957Z,6.93
2023-03-29T04:09:11.769Z,7.06
2023-03-29T04:11:45.101Z,6.94
2023-03-29T04:14:16.856Z,6.72
2023-03-29T04:17:03.145Z,6.80
2023-03-29T04:19:55.184Z,6.83
2023-03-29T04:22:25.451Z,6.98
2023-03-29T04:24:56.532Z,6.99
2023-03-29T04:27:58.242Z,6.66
2023-03-29T04:30:52.483Z,6.97
2023-03-29T04:33:37.244Z,6.85
2023-03-29T04:36:10.923Z,7.09
2023-03-29T04:38:43.374Z,7.19
2023-03-29T04:41:17.200Z,6.79
2023-03-29T04:43:47.035Z,7.16
2023-03-29T04:46:30.185Z,7.05
2023-03-29T04:49:09.386Z,6.96
2023-03-29T04:51:45.919Z,6.97
2023-03-29T04:54:15.736Z,6.96
2023-03-29T04:57:14.373Z,6.93
2023-03-29T04:59:56.530Z,6.88
2023-03-29T05:02:45.567Z,6.85
2023-03-29T05:05:16.677Z,6.81
2023-03-29T05:07:50.949Z,6.94
2023-03-29T05:10:26.204Z,6.89
2023-03-29T05:12:57.102Z,6.75
2023-03-29T05:15:26.961Z,6.72
2023-03-29T05:17:58.602Z,6.59
2023-03-29T05:20:28.668Z,6.62
2023-03-29T05:23:01.975Z,6.65
2023-03-29T05:25:51.729Z,6.57
2023-03-29T05:28:22.575Z,6.55
2023-03-29T05:31:04.556Z,6.65
2023-03-29T05:33:36.869Z,6.65
2023-03-29T05:36:11.197Z,6.60
2023-03-29T05:38:49.411Z,6.65
2023-03-29T05:41:20.969Z,6.64
2023-03-29T05:44:09.346Z,6.76
2023-03-29T05:46:42.055Z,6.53
2023-03-29T05:49:16.697Z,7.02
2023-03-29T05:51:58.485Z,6.95
2023-03-29T05:54:32.495Z,7.04
2023-03-29T05:57:02.956Z,7.07
2023-03-29T05:59:33.915Z,7.04
2023-03-29T06:02:05.235Z,7.09
2023-03-29T06:04:37.525Z,7.03
2023-03-29T06:07:25.636Z,7.05
2023-03-29T06:10:24.883Z,7.22
2023-03-29T06:13:02.191Z,7.28
2023-03-29T06:15:33.515Z,7.39
2023-03-29T06:18:07.969Z,7.46
2023-03-29T06:20:38.974Z,7.39
2023-03-29T06:23:14.590Z,7.43
2023-03-29T06:25:47.438Z,7.62
2023-03-29T06:28:18.459Z,7.75
2023-03-29T06:30:49.472Z,7.75
2023-03-29T06:33:20.635Z,7.91
2023-03-29T06:36:04.706Z,7.91
2023-03-29T06:38:34.690Z,7.82
2023-03-29T06:41:23.842Z,7.58
2023-03-29T06:44:17.537Z,7.95
2023-03-29T06:47:13.487Z,7.92
2023-03-29T06:49:43.271Z,7.97
2023-03-29T06:52:29.005Z,7.91
2023-03-29T06:55:01.767Z,7.94
2023-03-29T06:57:34.405Z,7.89
2023-03-29T07:00:14.320Z,7.88
2023-03-29T07:03:10.096Z,7.99
2023-03-29T07:05:41.195Z,7.84
2023-03-29T07:08:16.551Z,7.93
2023-03-29T07:11:14.689Z,8.01
2023-03-29T07:14:03.071Z,7.82
2023-03-29T07:16:32.929Z,7.85
2023-03-29T07:19:12.095Z,7.96
2023-03-29T07:21:54.478Z,7.82
2023-03-29T07:24:28.894Z,7.70
2023-03-29T07:27:04.116Z,7.98
2023-03-29T07:29:38.030Z,8.23
2023-03-29T07:32:07.959Z,8.15
2023-03-29T07:34:58.020Z,8.20
2023-03-29T07:37:35.426Z,8.12
2023-03-29T07:40:09.393Z,8.18
2023-03-29T07:42:47.287Z,8.19
2023-03-29T07:45:28.340Z,8.29
2023-03-29T07:48:13.051Z,8.32
2023-03-29T07:50:56.049Z,8.46
2023-03-29T07:53:31.360Z,8.58
2023-03-29T07:56:04.737Z,8.84
2023-03-29T07:58:52.994Z,8.89
2023-03-29T08:01:25.836Z,9.15
2023-03-29T08:04:20.955Z,9.00
2023-03-29T08:07:09.352Z,9.15
2023-03-29T08:10:03.377Z,9.22
2023-03-29T08:12:56.887Z,9.14
2023-03-29T08:15:37.927Z,9.12
2023-03-29T08:18:11.238Z,9.32
2023-03-29T08:20:41.039Z,9.27
2023-03-29T08:23:15.959Z,9.14
2023-03-29T08:26:08.802Z,8.96
2023-03-29T08:28:38.866Z,9.25
2023-03-29T08:31:10.762Z,9.10
2023-03-29T08:33:45.955Z,9.37
2023-03-29T08:36:47.977Z,9.27
2023-03-29T08:39:27.839Z,9.23
2023-03-29T08:42:46.567Z,9.24
2023-03-29T08:45:23.661Z,9.27
2023-03-29T08:48:04.892Z,9.13
2023-03-29T08:50:43.574Z,9.25
2023-03-29T08:53:19.015Z,9.23
2023-03-29T08:56:11.929Z,8.93
2023-03-29T08:59:19.703Z,9.31
2023-03-29T09:01:53.374Z,8.85
2023-03-29T09:04:27.581Z,9.16
2023-03-29T09:07:18.146Z,9.19
2023-03-29T09:09:50.065Z,9.10
2023-03-29T09:12:48.003Z,9.32
2023-03-29T09:15:21.628Z,9.09
2023-03-29T09:18:08.333Z,9.37
2023-03-29T09:20:47.834Z,9.36
2023-03-29T09:23:47.334Z,9.48
2023-03-29T09:26:31.312Z,9.48
2023-03-29T09:29:59.495Z,9.39
2023-03-29T09:32:52.156Z,9.41
2023-03-29T09:35:33.033Z,9.50
2023-03-29T09:38:03.602Z,9.73
2023-03-29T09:40:42.834Z,9.77
2023-03-29T09:43:21.268Z,9.49
2023-03-29T09:45:56.554Z,9.53
2023-03-29T09:48:28.322Z,9.57
2023-03-29T09:51:00.750Z,9.66
2023-03-29T09:53:30.871Z,9.75
2023-03-29T09:56:19.197Z,9.95
2023-03-29T09:58:52.424Z,10.12
2023-03-29T10:01:22.783Z,10.21
2023-03-29T10:03:55.630Z,9.99
2023-03-29T10:06:27.815Z,10.05
2023-03-29T10:09:02.343Z,10.06
2023-03-29T10:11:40.096Z,10.03
2023-03-29T10:14:16.916Z,10.09
2023-03-29T10:16:47.973Z,9.87
2023-03-29T10:19:22.004Z,10.11
2023-03-29T10:21:58.530Z,10.25
2023-03-29T10:24:30.030Z,10.29
2023-03-29T10:27:07.015Z,10.21
2023-03-29T10:29:42.417Z,9.98
2023-03-29T10:32:19.932Z,9.90
2023-03-29T10:34:50.510Z,10.21
2023-03-29T10:37:23.550Z,10.42
2023-03-29T10:39:54.240Z,10.21
2023-03-29T10:42:28.830Z,10.47
2023-03-29T10:45:00.923Z,10.69
2023-03-29T10:47:35.193Z,10.88
2023-03-29T10:50:09.966Z,11.00
2023-03-29T10:52:39.693Z,11.10
2023-03-29T10:55:15.253Z,11.01
2023-03-29T10:57:55.647Z,11.05
2023-03-29T11:00:33.410Z,11.15
2023-03-29T11:03:20.187Z,11.12
2023-03-29T11:05:57.414Z,11.18
2023-03-29T11:08:41.233Z,10.90
2023-03-29T11:11:30.276Z,11.33
2023-03-29T11:14:08.805Z,11.56
2023-03-29T11:16:47.152Z,11.62
2023-03-29T11:19:54.758Z,11.82
2023-03-29T11:22:32.253Z,11.78
2023-03-29T11:25:16.836Z,11.60
2023-03-29T11:27:53.918Z,11.73
2023-03-29T11:30:32.879Z,12.01
2023-03-29T11:33:13.445Z,12.04
2023-03-29T11:35:51.062Z,12.23
2023-03-29T11:38:28.516Z,12.20
2023-03-29T11:41:05.034Z,12.15
2023-03-29T11:43:39.077Z,12.11
2023-03-29T11:46:19.418Z,12.13
2023-03-29T11:48:53.727Z,12.02
2023-03-29T11:51:27.310Z,12.04
2023-03-29T11:54:03.583Z,11.83
2023-03-29T11:56:39.656Z,11.66
2023-03-29T11:59:14.877Z,11.72
2023-03-29T12:01:52.315Z,11.68
2023-03-29T12:04:27.628Z,12.17
2023-03-29T12:07:08.813Z,11.67
2023-03-29T12:09:42.389Z,11.53
2023-03-29T12:12:18.471Z,11.51
2023-03-29T12:14:57.441Z,11.59
2023-03-29T12:17:34.447Z,10.35
2023-03-29T12:20:13.494Z,11.28
2023-03-29T12:22:49.202Z,11.43
2023-03-29T12:25:23.226Z,11.17
2023-03-29T12:28:07.012Z,11.47
2023-03-29T12:30:52.479Z,11.36
2023-03-29T12:34:06.869Z,11.36
2023-03-29T12:37:16.620Z,11.35
2023-03-29T12:39:49.754Z,11.35
2023-03-29T12:43:05.615Z,11.34
2023-03-29T12:45:57.354Z,11.70
2023-03-29T12:48:29.584Z,12.04
2023-03-29T12:51:03.786Z,12.14
2023-03-29T12:53:39.547Z,12.09
2023-03-29T12:56:18.903Z,12.14
2023-03-29T12:58:58.272Z,12.28
2023-03-29T13:01:31.872Z,12.39
2023-03-29T13:04:18.527Z,12.37
2023-03-29T13:07:03.353Z,12.59
2023-03-29T13:09:38.724Z,12.58
2023-03-29T13:12:22.969Z,12.48
2023-03-29T13:14:55.302Z,12.63
2023-03-29T13:17:30.381Z,12.47
2023-03-29T13:20:17.417Z,12.40
2023-03-29T13:22:56.807Z,12.41
2023-03-29T13:25:46.650Z,12.52
2023-03-29T13:28:25.231Z,12.48
2023-03-29T13:31:01.885Z,12.36
2023-03-29T13:34:01.032Z,12.36
2023-03-29T13:36:43.271Z,12.51
2023-03-29T13:39:19.183Z,12.48
2023-03-29T13:41:54.387Z,12.45
2023-03-29T13:44:30.485Z,12.38
2023-03-29T13:47:16.478Z,12.52
2023-03-29T13:49:56.489Z,12.61
2023-03-29T13:52:30.762Z,12.59
2023-03-29T13:55:04.371Z,12.53
2023-03-29T13:57:42.329Z,12.49
2023-03-29T14:00:20.305Z,12.72
2023-03-29T14:02:53.109Z,12.87
2023-03-29T14:05:27.420Z,12.70
2023-03-29T14:07:58.286Z,12.79
2023-03-29T14:10:33.939Z,13.05
2023-03-29T14:13:07.391Z,13.13
2023-03-29T14:15:49.017Z,13.21
2023-03-29T14:18:22.398Z,13.19
2023-03-29T14:20:55.149Z,13.03
2023-03-29T14:23:27.238Z,13.04
2023-03-29T14:25:57.127Z,13.01
2023-03-29T14:28:31.340Z,12.87
2023-03-29T14:31:01.259Z,12.97
2023-03-29T14:33:34.702Z,12.92
2023-03-29T14:36:07.801Z,13.01
2023-03-29T14:38:39.626Z,13.03
2023-03-29T14:41:10.123Z,12.90
2023-03-29T14:43:43.495Z,12.95
2023-03-29T14:46:15.558Z,13.00
2023-03-29T14:48:46.488Z,13.00
2023-03-29T14:51:17.295Z,13.05
2023-03-29T14:53:47.474Z,13.01
2023-03-29T14:56:24.269Z,13.11
2023-03-29T14:58:58.034Z,13.11
2023-03-29T15:01:29.300Z,13.09
2023-03-29T15:04:04.876Z,13.23
2023-03-29T15:06:36.521Z,13.13
2023-03-29T15:09:07.109Z,13.11
2023-03-29T15:11:39.910Z,13.37
2023-03-29T15:14:18.501Z,13.56
2023-03-29T15:16:49.715Z,13.64
2023-03-29T15:19:22.492Z,13.40
2023-03-29T15:21:53.699Z,13.51
2023-03-29T15:24:26.211Z,13.61
2023-03-29T15:27:05.724Z,13.58
2023-03-29T15:29:45.482Z,13.59
2023-03-29T15:32:24.409Z,13.56
2023-03-29T15:35:01.566Z,13.60
2023-03-29T15:37:31.781Z,13.46
2023-03-29T15:40:05.299Z,13.07
2023-03-29T15:42:35.747Z,13.08
2023-03-29T15:45:09.520Z,13.21
2023-03-29T15:47:39.299Z,12.95
2023-03-29T15:50:09.877Z,13.23
2023-03-29T15:52:39.780Z,13.24
2023-03-29T15:55:11.645Z,13.30
2023-03-29T15:57:41.562Z,13.39
2023-03-29T16:00:19.192Z,13.51
2023-03-29T16:02:51.623Z,13.40
2023-03-29T16:05:22.503Z,13.31
2023-03-29T16:07:52.518Z,13.30
2023-03-29T16:10:22.403Z,13.27
2023-03-29T16:12:52.111Z,13.32
2023-03-29T16:15:27.350Z,13.25
2023-03-29T16:17:57.296Z,13.28
2023-03-29T16:20:27.017Z,13.29
2023-03-29T16:22:57.048Z,13.29
2023-03-29T16:25:27.112Z,13.37
2023-03-29T16:27:56.901Z,13.32
2023-03-29T16:30:31.046Z,13.27
2023-03-29T16:33:01.275Z,13.49
2023-03-29T16:35:34.196Z,13.50
2023-03-29T16:38:03.937Z,13.46
2023-03-29T16:40:33.673Z,13.29
2023-03-29T16:43:03.828Z,13.49
2023-03-29T16:45:36.513Z,13.46
2023-03-29T16:48:06.627Z,13.39
2023-03-29T16:50:36.810Z,13.68
2023-03-29T16:53:06.831Z,13.69
2023-03-29T16:55:38.178Z,13.52
2023-03-29T16:58:07.883Z,13.69
2023-03-29T17:00:40.976Z,13.72
2023-03-29T17:03:10.845Z,13.64
2023-03-29T17:05:41.792Z,13.65
2023-03-29T17:08:11.664Z,13.62
2023-03-29T17:10:42.795Z,13.71
2023-03-29T17:13:13.189Z,13.65
2023-03-29T17:15:45.894Z,13.56
2023-03-29T17:18:15.672Z,13.38
2023-03-29T17:20:45.433Z,13.32
2023-03-29T17:23:15.252Z,13.18
2023-03-29T17:25:45.650Z,13.08
2023-03-29T17:28:15.581Z,12.89
2023-03-29T17:30:48.940Z,13.16
2023-03-29T17:33:22.328Z,13.13
2023-03-29T17:35:52.837Z,13.05
2023-03-29T17:38:22.841Z,13.17
2023-03-29T17:40:55.978Z,13.22
2023-03-29T17:43:25.988Z,13.08
2023-03-29T17:45:58.447Z,13.00
2023-03-29T17:48:28.579Z,13.10
2023-03-29T17:50:59.075Z,13.01
2023-03-29T17:53:29.017Z,13.16
2023-03-29T17:55:58.758Z,12.78
2023-03-29T17:58:28.592Z,13.14
2023-03-29T18:01:01.008Z,13.20
2023-03-29T18:03:30.787Z,13.10
2023-03-29T18:06:00.544Z,13.04
2023-03-29T18:08:30.693Z,13.08
2023-03-29T18:11:08.060Z,13.03
2023-03-29T18:13:38.151Z,13.14
2023-03-29T18:16:11.978Z,13.22
2023-03-29T18:18:43.825Z,13.18
2023-03-29T18:21:13.938Z,13.15
2023-03-29T18:23:47.665Z,13.19
2023-03-29T18:26:18.420Z,13.20
2023-03-29T18:28:49.611Z,13.16
2023-03-29T18:31:22.179Z,13.19
2023-03-29T18:33:51.991Z,13.08
2023-03-29T18:36:22.057Z,13.10
2023-03-29T18:38:53.740Z,12.99
2023-03-29T18:41:23.621Z,13.03
2023-03-29T18:43:57.366Z,13.10
2023-03-29T18:46:32.008Z,13.09
2023-03-29T18:49:04.331Z,13.11
2023-03-29T18:51:34.814Z,13.08
2023-03-29T18:54:04.676Z,12.93
2023-03-29T18:56:35.566Z,13.05
2023-03-29T18:59:06.601Z,13.03
2023-03-29T19:01:39.035Z,12.68
2023-03-29T19:04:09.109Z,13.09
2023-03-29T19:06:38.899Z,13.09
2023-03-29T19:09:08.621Z,13.02
2023-03-29T19:11:38.788Z,13.00
2023-03-29T19:14:09.431Z,12.90
2023-03-29T19:16:42.829Z,13.09
2023-03-29T19:19:12.984Z,12.89
2023-03-29T19:21:42.706Z,12.89
2023-03-29T19:24:12.507Z,13.04
2023-03-29T19:26:42.348Z,13.05
2023-03-29T19:29:12.101Z,13.02
2023-03-29T19:31:44.424Z,13.13
2023-03-29T19:34:14.332Z,13.09
2023-03-29T19:36:44.056Z,13.07
2023-03-29T19:39:14.164Z,12.81
2023-03-29T19:41:43.876Z,13.08
2023-03-29T19:44:13.898Z,13.03
2023-03-29T19:46:46.224Z,13.05
2023-03-29T19:49:15.974Z,12.98
2023-03-29T19:51:46.198Z,12.94
2023-03-29T19:54:17.552Z,12.95
2023-03-29T19:56:49.550Z,12.92
2023-03-29T19:59:21.169Z,12.81
2023-03-29T20:01:53.558Z,12.69
2023-03-29T20:04:25.111Z,12.87
2023-03-29T20:06:54.900Z,12.91
2023-03-29T20:09:24.601Z,12.87
2023-03-29T20:11:54.300Z,12.82
2023-03-29T20:14:24.387Z,12.75
2023-03-29T20:16:56.829Z,12.78
2023-03-29T20:19:27.032Z,12.75
2023-03-29T20:21:58.274Z,12.58
2023-03-29T20:24:28.082Z,12.72
2023-03-29T20:26:57.928Z,12.74
2023-03-29T20:29:27.855Z,12.68
2023-03-29T20:32:00.330Z,12.76
2023-03-29T20:34:30.407Z,12.80
2023-03-29T20:37:01.067Z,12.82
2023-03-29T20:39:31.564Z,12.90
2023-03-29T20:42:01.379Z,12.93
2023-03-29T20:44:32.421Z,12.82
2023-03-29T20:47:08.257Z,12.90
2023-03-29T20:49:42.808Z,13.02
2023-03-29T20:52:15.593Z,12.82
2023-03-29T20:54:46.816Z,12.98
2023-03-29T20:57:18.964Z,12.95
2023-03-29T20:59:49.421Z,12.94
2023-03-29T21:02:23.952Z,13.00
2023-03-29T21:04:54.621Z,13.00
2023-03-29T21:07:24.472Z,12.95
2023-03-29T21:09:54.300Z,12.94
2023-03-29T21:12:24.289Z,12.85
2023-03-29T21:14:54.160Z,12.74
2023-03-29T21:17:27.186Z,12.95
2023-03-29T21:19:56.915Z,12.93
2023-03-29T21:22:26.745Z,12.99
2023-03-29T21:24:56.517Z,13.01
2023-03-29T21:27:26.236Z,12.98
2023-03-29T21:29:56.008Z,13.02
2023-03-29T21:32:28.321Z,12.97
2023-03-29T21:34:58.063Z,13.02
2023-03-29T21:37:27.880Z,12.97
2023-03-29T21:39:57.618Z,12.91
2023-03-29T21:42:27.434Z,12.90
2023-03-29T21:44:57.118Z,12.86
2023-03-29T21:47:29.416Z,12.97
2023-03-29T21:49:59.176Z,12.82
2023-03-29T21:52:28.936Z,12.83
2023-03-29T21:54:58.646Z,12.84
2023-03-29T21:57:28.399Z,12.80
2023-03-29T21:59:58.162Z,12.78
2023-03-29T22:02:30.869Z,12.73
2023-03-29T22:05:00.717Z,12.65
2023-03-29T22:07:30.469Z,12.60
2023-03-29T22:10:04.329Z,12.54
2023-03-29T22:12:34.641Z,12.64
2023-03-29T22:15:05.778Z,12.63
2023-03-29T22:17:38.701Z,12.47
2023-03-29T22:20:14.364Z,12.65
2023-03-29T22:22:49.879Z,12.72
2023-03-29T22:25:20.584Z,12.55
2023-03-29T22:27:51.024Z,12.55
2023-03-29T22:30:21.211Z,12.58
2023-03-29T22:32:53.571Z,12.56
2023-03-29T22:35:23.347Z,12.48
2023-03-29T22:37:53.062Z,12.55
2023-03-29T22:40:22.819Z,12.49
2023-03-29T22:42:52.543Z,12.17
2023-03-29T22:45:22.267Z,12.41
2023-03-29T22:47:54.667Z,12.63
2023-03-29T22:50:24.562Z,12.55
2023-03-29T22:52:54.279Z,12.61
2023-03-29T22:55:24.002Z,12.60
2023-03-29T22:57:53.924Z,12.60
2023-03-29T23:00:23.899Z,12.52
2023-03-29T23:02:56.539Z,12.61
2023-03-29T23:05:26.637Z,12.54
2023-03-29T23:07:56.372Z,12.13
2023-03-29T23:10:28.990Z,12.46
2023-03-29T23:13:09.028Z,12.49
2023-03-29T23:15:39.089Z,12.35
2023-03-29T23:18:13.191Z,12.41
2023-03-29T23:20:43.046Z,12.49
2023-03-29T23:23:13.340Z,12.35
2023-03-29T23:25:43.104Z,12.18
2023-03-29T23:28:12.821Z,12.47
2023-03-29T23:30:42.962Z,12.48
2023-03-29T23:33:15.282Z,12.35
2023-03-29T23:35:46.831Z,12.38
2023-03-29T23:38:16.608Z,12.48
2023-03-29T23:40:46.722Z,12.47
2023-03-29T23:43:17.181Z,12.51
2023-03-29T23:45:47.291Z,12.43
2023-03-29T23:48:21.095Z,12.42
2023-03-29T23:50:51.026Z,12.54
2023-03-29T23:53:22.086Z,12.44
2023-03-29T23:55:52.235Z,12.55
2023-03-29T23:58:22.025Z,12.58
